• Join FlightAware (Why Join?)
  • Login
  • US Flag 
02:38PM EST


 

Airport Tracker/Info


-or-


 

Live Flight TrackerFlight Track Log ✈ FLG3976 ✈ 11-May-2013 ✈ KSAW - KDTW

Flight Track Log - Related Links

Times and Time Zones

All times are in EDT time to prevent confusion due to time zone crossing. See the FLG3976 flight status page for this flight to view local times or setup timezone preferences in your user account.

Time Position Orientation Groundspeed Altitude Reporting Facility
EDT Latitude Longitude Course Direction KTS MPH feet Rate Location/Type
06:38AM 46.3689 -87.3925 142° Southeast 15 17 1,200  Level Minneapolis Center
06:39AM 46.3303 -87.3994 187° South 146 168 2,600 1,620 Climbing Minneapolis Center
06:40AM 46.2850 -87.3569 147° Southeast 208 239 4,500 1,680 Climbing Minneapolis Center
06:41AM 46.2336 -87.2975 141° Southeast 237 273 6,100 1,980 Climbing Minneapolis Center
06:42AM 46.1711 -87.2244 141° Southeast 280 322 8,600 2,400 Climbing Minneapolis Center
06:43AM 46.1119 -87.1561 141° Southeast 289 333 10,900 1,620 Climbing Minneapolis Center
06:44AM 45.9570 -86.9760 142° Southeast  Level Estimated
06:44AM 46.0392 -87.0719 141° Southeast 335 386 11,900  Level Minneapolis Center
06:45AM 45.8775 -86.8928 142° Southeast  Level Estimated
06:45AM 45.9617 -86.9833 142° Southeast 349 402 13,600  Level Minneapolis Center
06:46AM 45.8817 -86.8928 142° Southeast 361 415 15,200 1,380 Climbing Minneapolis Center
06:47AM 45.8003 -86.7986 141° Southeast 371 427 16,400 1,140 Climbing Minneapolis Center
06:48AM 45.7250 -86.7156 142° Southeast 379 436 17,600 1,320 Climbing Minneapolis Center
06:50AM 45.6247 -86.6017 142° Southeast 385 443 19,600 1,440 Climbing Minneapolis Center
06:51AM 45.5214 -86.4875 142° Southeast 391 450 21,200 1,140 Climbing Minneapolis Center
06:52AM 45.4317 -86.3892 142° Southeast 402 463 22,000 840 Climbing Minneapolis Center
06:53AM 45.3400 -86.2861 142° Southeast 414 476 22,900 840 Climbing Minneapolis Center
06:54AM 45.2472 -86.1833 142° Southeast 420 483 23,800 900 Climbing Minneapolis Center
06:55AM 45.1464 -86.0714 142° Southeast 427 491 24,800 900 Climbing Minneapolis Center
06:56AM 45.0506 -85.9647 142° Southeast 435 501 25,700 840 Climbing Minneapolis Center
06:57AM 44.9583 -85.8644 142° Southeast 428 493 26,600 600 Climbing Minneapolis Center
06:58AM 44.8639 -85.7631 143° Southeast 425 489 27,000 180 Climbing Minneapolis Center
06:59AM 44.7664 -85.6581 143° Southeast 434 499 27,000  Level Minneapolis Center
07:00AM 44.6694 -85.5522 142° Southeast 443 510 27,000  Level Minneapolis Center
07:01AM 44.5744 -85.4258 137° Southeast 464 534 27,000  Level Minneapolis Center
07:02AM 44.4778 -85.2994 137° Southeast 472 543 27,000 -120 Level Minneapolis Center
07:03AM 44.3828 -85.1728 136° Southeast 472 543 26,800 -540 Descending Minneapolis Center
07:04AM 44.2861 -85.0472 137° Southeast 473 544 26,000 -780 Descending Minneapolis Center
07:05AM 44.1906 -84.9217 137° Southeast 473 544 25,300 -660 Descending Minneapolis Center
07:06AM 44.0939 -84.7972 137° Southeast 473 544 24,700 -660 Descending Minneapolis Center
07:07AM 43.9953 -84.6700 137° Southeast 475 547 24,000 -720 Descending Minneapolis Center
07:08AM 43.9000 -84.5458 137° Southeast 471 542 23,300 -540 Descending Minneapolis Center
07:09AM 43.8050 -84.4256 138° Southeast 466 536 23,000 -180 Descending Minneapolis Center
07:10AM 43.7128 -84.3072 137° Southeast 456 525 23,000  Level Minneapolis Center
07:11AM 43.6150 -84.1847 138° Southeast 458 527 23,000 -660 Level Cleveland Center
07:12AM 43.5092 -84.1011 150° Southeast 436 502 21,800 -1,500 Descending Cleveland Center
07:13AM 43.3944 -84.0344 157° South 441 507 20,100 -1,680 Descending Cleveland Center
07:14AM 43.2936 -83.9861 161° South 441 507 18,500 -1,680 Descending Cleveland Center
07:15AM 43.1869 -83.9289 159° South 428 493 16,800 -1,740 Descending Cleveland Center
07:16AM 43.0844 -83.8694 157° South 418 481 15,100 -1,800 Descending Cleveland Center
07:16AM 43.0125 -83.8317 159° South 396 456 14,000 -1,800 Descending Cleveland Center
07:17AM 42.9817 -83.8158 159° South 393 452 13,500 -1,560 Descending Cleveland Center
07:18AM 42.8811 -83.7625 159° South 384 442 12,000 -780 Descending Cleveland Center
07:19AM 42.7867 -83.7094 158° South 387 445 11,900 -420 Descending Cleveland Center
07:20AM 42.7006 -83.6572 156° South 364 419 11,200 -960 Descending Cleveland Center
07:21AM 42.6381 -83.5778 137° Southeast 311 358 10,000 -1,260 Descending Cleveland Center
07:22AM 42.5797 -83.4878 131° Southeast 304 350 8,700 -1,140 Descending Cleveland Center
07:23AM 42.5486 -83.4017 116° Southeast 236 272 7,800 -960 Descending Cleveland Center
07:24AM 42.5150 -83.3297 122° Southeast 222 255 6,800 -1,140 Descending Cleveland Center
07:25AM 42.4706 -83.2714 136° Southeast 213 245 5,600 -1,200 Descending Cleveland Center
07:26AM 42.4189 -83.2494 163° South 206 237 4,400 -840 Descending Cleveland Center
07:27AM 42.3622 -83.2642 191° South 185 213 3,900 -840 Descending Cleveland Center
07:28AM 42.3197 -83.2986 211° Southwest 180 207 2,800 -1,020 Descending Cleveland Center
07:29AM 42.2792 -83.3336 213° Southwest 144 166 1,900 -900 Descending Cleveland Center
07:30AM 42.2369 -83.3597 205° Southwest 145 167 1,000 -840 Descending Cleveland Center